sensor_id;sensor_type;location;lat;lon;timestamp;P1;durP1;ratioP1;P2;durP2;ratioP2
76597;SDS011;65486;53.144;18.134;2023-04-03T13:05:38;2.30;;;0.70;;
76597;SDS011;65486;53.144;18.134;2023-04-03T13:08:08;1.50;;;0.80;;
76597;SDS011;65486;53.144;18.134;2023-04-03T13:10:51;3.00;;;0.80;;
76597;SDS011;65486;53.144;18.134;2023-04-03T13:13:25;2.00;;;0.80;;
76597;SDS011;65486;53.144;18.134;2023-04-03T13:15:53;1.40;;;0.60;;
76597;SDS011;65486;53.144;18.134;2023-04-03T13:18:26;2.70;;;0.80;;
76597;SDS011;65486;53.144;18.134;2023-04-03T13:21:21;1.30;;;0.70;;
76597;SDS011;65486;53.144;18.134;2023-04-03T13:23:55;2.50;;;0.60;;
76597;SDS011;65486;53.144;18.134;2023-04-03T13:26:28;2.10;;;0.70;;
76597;SDS011;65486;53.144;18.134;2023-04-03T13:29:02;2.20;;;0.80;;
76597;SDS011;65486;53.144;18.134;2023-04-03T13:31:37;2.30;;;0.80;;
76597;SDS011;65486;53.144;18.134;2023-04-03T13:34:17;1.90;;;0.80;;
76597;SDS011;65486;53.144;18.134;2023-04-03T13:36:59;2.00;;;0.90;;
76597;SDS011;65486;53.144;18.134;2023-04-03T13:39:37;3.30;;;0.80;;
76597;SDS011;65486;53.144;18.134;2023-04-03T13:42:23;1.40;;;0.50;;
76597;SDS011;65486;53.144;18.134;2023-04-03T13:47:50;3.50;;;0.80;;
76597;SDS011;65486;53.144;18.134;2023-04-03T13:50:21;1.20;;;0.60;;
76597;SDS011;65486;53.144;18.134;2023-04-03T13:52:59;1.10;;;0.60;;
76597;SDS011;65486;53.144;18.134;2023-04-03T13:55:33;2.50;;;0.80;;
76597;SDS011;65486;53.144;18.134;2023-04-03T14:00:36;1.80;;;0.80;;
76597;SDS011;65486;53.144;18.134;2023-04-03T14:03:51;1.90;;;0.90;;
76597;SDS011;65486;53.144;18.134;2023-04-03T14:06:27;1.70;;;0.90;;
76597;SDS011;65486;53.144;18.134;2023-04-03T14:08:56;2.70;;;1.00;;
76597;SDS011;65486;53.144;18.134;2023-04-03T14:11:28;4.60;;;2.10;;
76597;SDS011;65486;53.144;18.134;2023-04-03T14:14:09;8.40;;;2.90;;
76597;SDS011;65486;53.144;18.134;2023-04-03T14:16:44;5.10;;;1.90;;
76597;SDS011;65486;53.144;18.134;2023-04-03T14:19:18;4.90;;;1.20;;
76597;SDS011;65486;53.144;18.134;2023-04-03T14:21:50;10.00;;;3.60;;
76597;SDS011;65486;53.144;18.134;2023-04-03T14:24:19;22.40;;;7.00;;
76597;SDS011;65486;53.144;18.134;2023-04-03T14:26:51;15.90;;;5.30;;
76597;SDS011;65486;53.144;18.134;2023-04-03T14:29:22;19.60;;;6.90;;
76597;SDS011;65486;53.144;18.134;2023-04-03T14:31:51;18.30;;;5.90;;
76597;SDS011;65486;53.144;18.134;2023-04-03T14:34:21;13.40;;;3.90;;
76597;SDS011;65486;53.144;18.134;2023-04-03T14:37:01;15.20;;;4.10;;
76597;SDS011;65486;53.144;18.134;2023-04-03T14:39:33;33.90;;;8.90;;
76597;SDS011;65486;53.144;18.134;2023-04-03T14:42:04;11.30;;;3.10;;
76597;SDS011;65486;53.144;18.134;2023-04-03T14:44:36;5.70;;;2.10;;
76597;SDS011;65486;53.144;18.134;2023-04-03T14:47:14;12.80;;;4.10;;
76597;SDS011;65486;53.144;18.134;2023-04-03T14:49:51;14.50;;;5.10;;
76597;SDS011;65486;53.144;18.134;2023-04-03T14:52:24;20.70;;;6.20;;
76597;SDS011;65486;53.144;18.134;2023-04-03T14:54:59;15.50;;;5.00;;
76597;SDS011;65486;53.144;18.134;2023-04-03T14:57:31;7.00;;;2.20;;
76597;SDS011;65486;53.144;18.134;2023-04-03T15:00:03;8.10;;;3.00;;
76597;SDS011;65486;53.144;18.134;2023-04-03T15:05:07;5.80;;;2.20;;
76597;SDS011;65486;53.144;18.134;2023-04-03T15:07:58;3.10;;;1.20;;
76597;SDS011;65486;53.144;18.134;2023-04-03T15:10:30;3.30;;;1.00;;
76597;SDS011;65486;53.144;18.134;2023-04-03T15:12:57;3.00;;;0.90;;
76597;SDS011;65486;53.144;18.134;2023-04-03T15:15:27;2.70;;;0.90;;
76597;SDS011;65486;53.144;18.134;2023-04-03T15:17:56;2.50;;;1.00;;
76597;SDS011;65486;53.144;18.134;2023-04-03T15:20:27;3.20;;;0.90;;
76597;SDS011;65486;53.144;18.134;2023-04-03T15:22:57;4.80;;;1.10;;
76597;SDS011;65486;53.144;18.134;2023-04-03T15:25:27;3.40;;;1.00;;
76597;SDS011;65486;53.144;18.134;2023-04-03T15:27:58;2.10;;;0.90;;
76597;SDS011;65486;53.144;18.134;2023-04-03T15:30:26;2.90;;;0.70;;
76597;SDS011;65486;53.144;18.134;2023-04-03T15:32:55;2.20;;;0.90;;
76597;SDS011;65486;53.144;18.134;2023-04-03T15:35:24;2.10;;;0.70;;
76597;SDS011;65486;53.144;18.134;2023-04-03T15:38:13;3.10;;;0.90;;
76597;SDS011;65486;53.144;18.134;2023-04-03T15:40:58;2.30;;;1.10;;
76597;SDS011;65486;53.144;18.134;2023-04-03T15:43:25;3.50;;;1.20;;
76597;SDS011;65486;53.144;18.134;2023-04-03T15:45:53;3.30;;;1.10;;
76597;SDS011;65486;53.144;18.134;2023-04-03T15:48:25;3.90;;;1.20;;
76597;SDS011;65486;53.144;18.134;2023-04-03T15:50:53;3.70;;;0.90;;
76597;SDS011;65486;53.144;18.134;2023-04-03T15:53:22;3.30;;;0.80;;
76597;SDS011;65486;53.144;18.134;2023-04-03T15:55:52;2.20;;;1.00;;
76597;SDS011;65486;53.144;18.134;2023-04-03T15:58:30;2.70;;;1.10;;
76597;SDS011;65486;53.144;18.134;2023-04-03T16:00:58;2.10;;;0.80;;
76597;SDS011;65486;53.144;18.134;2023-04-03T16:03:26;2.90;;;0.90;;
76597;SDS011;65486;53.144;18.134;2023-04-03T16:05:53;3.50;;;0.90;;
76597;SDS011;65486;53.144;18.134;2023-04-03T16:08:20;3.00;;;1.00;;
76597;SDS011;65486;53.144;18.134;2023-04-03T16:10:49;2.80;;;1.00;;
76597;SDS011;65486;53.144;18.134;2023-04-03T16:13:26;3.90;;;1.20;;
76597;SDS011;65486;53.144;18.134;2023-04-03T16:16:05;4.40;;;0.70;;
76597;SDS011;65486;53.144;18.134;2023-04-03T16:18:37;4.80;;;1.00;;
76597;SDS011;65486;53.144;18.134;2023-04-03T16:21:08;1.90;;;0.70;;
76597;SDS011;65486;53.144;18.134;2023-04-03T16:23:35;2.00;;;0.80;;
76597;SDS011;65486;53.144;18.134;2023-04-03T16:26:02;1.80;;;0.60;;
76597;SDS011;65486;53.144;18.134;2023-04-03T16:28:30;2.10;;;1.20;;
76597;SDS011;65486;53.144;18.134;2023-04-03T16:30:57;3.50;;;0.90;;
76597;SDS011;65486;53.144;18.134;2023-04-03T16:33:27;2.20;;;1.00;;
76597;SDS011;65486;53.144;18.134;2023-04-03T16:35:55;2.00;;;0.80;;
76597;SDS011;65486;53.144;18.134;2023-04-03T16:38:22;4.50;;;1.10;;
76597;SDS011;65486;53.144;18.134;2023-04-03T16:40:52;10.00;;;3.10;;
76597;SDS011;65486;53.144;18.134;2023-04-03T16:43:28;9.80;;;2.90;;
76597;SDS011;65486;53.144;18.134;2023-04-03T16:45:58;14.80;;;4.20;;
76597;SDS011;65486;53.144;18.134;2023-04-03T16:48:25;26.10;;;5.70;;
76597;SDS011;65486;53.144;18.134;2023-04-03T16:50:52;30.50;;;7.20;;
76597;SDS011;65486;53.144;18.134;2023-04-03T16:53:22;36.60;;;9.00;;
76597;SDS011;65486;53.144;18.134;2023-04-03T16:55:51;51.00;;;11.80;;
76597;SDS011;65486;53.144;18.134;2023-04-03T16:58:19;58.30;;;13.50;;
76597;SDS011;65486;53.144;18.134;2023-04-03T17:00:46;37.30;;;8.70;;
76597;SDS011;65486;53.144;18.134;2023-04-03T17:03:14;54.30;;;13.20;;
76597;SDS011;65486;53.144;18.134;2023-04-03T17:05:42;58.80;;;13.80;;
76597;SDS011;65486;53.144;18.134;2023-04-03T17:08:15;65.50;;;17.70;;
76597;SDS011;65486;53.144;18.134;2023-04-03T17:10:44;56.30;;;16.80;;
76597;SDS011;65486;53.144;18.134;2023-04-03T17:13:16;23.30;;;7.40;;
76597;SDS011;65486;53.144;18.134;2023-04-03T17:15:44;77.70;;;24.80;;
76597;SDS011;65486;53.144;18.134;2023-04-03T17:18:13;38.10;;;13.20;;
76597;SDS011;65486;53.144;18.134;2023-04-03T17:20:41;22.00;;;8.00;;
76597;SDS011;65486;53.144;18.134;2023-04-03T17:23:08;17.00;;;7.20;;
76597;SDS011;65486;53.144;18.134;2023-04-03T17:25:35;7.40;;;3.00;;
76597;SDS011;65486;53.144;18.134;2023-04-03T17:28:02;5.40;;;2.10;;
76597;SDS011;65486;53.144;18.134;2023-04-03T17:30:29;4.70;;;1.60;;
76597;SDS011;65486;53.144;18.134;2023-04-03T17:32:58;4.40;;;1.90;;
76597;SDS011;65486;53.144;18.134;2023-04-03T17:35:25;5.40;;;1.60;;
76597;SDS011;65486;53.144;18.134;2023-04-03T17:38:15;2.00;;;0.90;;
76597;SDS011;65486;53.144;18.134;2023-04-03T17:40:50;2.50;;;0.80;;
76597;SDS011;65486;53.144;18.134;2023-04-03T17:43:18;4.20;;;1.40;;
76597;SDS011;65486;53.144;18.134;2023-04-03T17:45:50;3.40;;;1.10;;
76597;SDS011;65486;53.144;18.134;2023-04-03T17:48:25;2.50;;;1.10;;
76597;SDS011;65486;53.144;18.134;2023-04-03T17:51:09;4.30;;;1.20;;
76597;SDS011;65486;53.144;18.134;2023-04-03T17:54:07;3.70;;;1.40;;
76597;SDS011;65486;53.144;18.134;2023-04-03T17:57:00;4.80;;;1.10;;
76597;SDS011;65486;53.144;18.134;2023-04-03T17:59:35;2.60;;;1.00;;
76597;SDS011;65486;53.144;18.134;2023-04-03T18:02:04;3.40;;;1.30;;
76597;SDS011;65486;53.144;18.134;2023-04-03T18:04:38;4.40;;;1.70;;
76597;SDS011;65486;53.144;18.134;2023-04-03T18:07:20;3.10;;;1.30;;
76597;SDS011;65486;53.144;18.134;2023-04-03T18:09:49;4.10;;;1.10;;
76597;SDS011;65486;53.144;18.134;2023-04-03T18:12:18;2.60;;;1.00;;
76597;SDS011;65486;53.144;18.134;2023-04-03T18:14:46;3.20;;;1.40;;
76597;SDS011;65486;53.144;18.134;2023-04-03T18:17:15;5.30;;;1.50;;
76597;SDS011;65486;53.144;18.134;2023-04-03T18:19:42;3.60;;;1.60;;
76597;SDS011;65486;53.144;18.134;2023-04-03T18:22:11;3.60;;;1.30;;
76597;SDS011;65486;53.144;18.134;2023-04-03T18:28:11;6.90;;;2.00;;
76597;SDS011;65486;53.144;18.134;2023-04-03T18:30:48;2.90;;;1.40;;
76597;SDS011;65486;53.144;18.134;2023-04-03T18:33:29;2.80;;;0.90;;
76597;SDS011;65486;53.144;18.134;2023-04-03T18:35:57;2.70;;;1.30;;
76597;SDS011;65486;53.144;18.134;2023-04-03T18:38:24;3.70;;;1.60;;
76597;SDS011;65486;53.144;18.134;2023-04-03T18:40:51;4.20;;;1.50;;
76597;SDS011;65486;53.144;18.134;2023-04-03T18:43:18;5.10;;;1.50;;
76597;SDS011;65486;53.144;18.134;2023-04-03T18:45:46;4.60;;;1.70;;
76597;SDS011;65486;53.144;18.134;2023-04-03T18:48:19;5.10;;;1.70;;
76597;SDS011;65486;53.144;18.134;2023-04-03T18:51:08;6.10;;;2.20;;
76597;SDS011;65486;53.144;18.134;2023-04-03T18:53:37;6.10;;;2.30;;
76597;SDS011;65486;53.144;18.134;2023-04-03T18:56:04;2.80;;;1.10;;
76597;SDS011;65486;53.144;18.134;2023-04-03T18:58:39;5.60;;;1.80;;
76597;SDS011;65486;53.144;18.134;2023-04-03T19:01:25;4.40;;;1.60;;
76597;SDS011;65486;53.144;18.134;2023-04-03T19:04:08;4.30;;;1.50;;
76597;SDS011;65486;53.144;18.134;2023-04-03T19:06:45;4.30;;;2.00;;
76597;SDS011;65486;53.144;18.134;2023-04-03T19:09:12;6.10;;;1.90;;
76597;SDS011;65486;53.144;18.134;2023-04-03T19:11:40;6.50;;;1.90;;
76597;SDS011;65486;53.144;18.134;2023-04-03T19:14:07;4.60;;;1.60;;
76597;SDS011;65486;53.144;18.134;2023-04-03T19:16:34;4.50;;;2.00;;
76597;SDS011;65486;53.144;18.134;2023-04-03T19:19:02;5.40;;;2.10;;
76597;SDS011;65486;53.144;18.134;2023-04-03T19:21:40;5.20;;;2.00;;
76597;SDS011;65486;53.144;18.134;2023-04-03T19:24:36;3.90;;;1.50;;
76597;SDS011;65486;53.144;18.134;2023-04-03T19:27:04;4.70;;;1.70;;
76597;SDS011;65486;53.144;18.134;2023-04-03T19:29:32;4.00;;;1.30;;
76597;SDS011;65486;53.144;18.134;2023-04-03T19:32:08;3.80;;;1.60;;
76597;SDS011;65486;53.144;18.134;2023-04-03T19:34:35;5.30;;;1.40;;
76597;SDS011;65486;53.144;18.134;2023-04-03T19:37:03;5.60;;;1.60;;
76597;SDS011;65486;53.144;18.134;2023-04-03T19:39:30;1.80;;;0.70;;
76597;SDS011;65486;53.144;18.134;2023-04-03T19:42:05;4.60;;;1.80;;
76597;SDS011;65486;53.144;18.134;2023-04-03T19:44:46;4.70;;;1.60;;
76597;SDS011;65486;53.144;18.134;2023-04-03T19:47:15;2.90;;;1.20;;
76597;SDS011;65486;53.144;18.134;2023-04-03T19:49:45;4.10;;;1.20;;
76597;SDS011;65486;53.144;18.134;2023-04-03T19:52:15;4.10;;;1.40;;
76597;SDS011;65486;53.144;18.134;2023-04-03T19:54:42;2.20;;;0.80;;
76597;SDS011;65486;53.144;18.134;2023-04-03T19:57:10;4.30;;;1.00;;
76597;SDS011;65486;53.144;18.134;2023-04-03T19:59:44;4.00;;;1.50;;
76597;SDS011;65486;53.144;18.134;2023-04-03T20:02:11;5.10;;;1.80;;
76597;SDS011;65486;53.144;18.134;2023-04-03T20:04:40;5.30;;;1.30;;
76597;SDS011;65486;53.144;18.134;2023-04-03T20:07:07;3.90;;;1.50;;
76597;SDS011;65486;53.144;18.134;2023-04-03T20:09:34;3.70;;;1.30;;
76597;SDS011;65486;53.144;18.134;2023-04-03T20:12:03;5.00;;;1.80;;
76597;SDS011;65486;53.144;18.134;2023-04-03T20:14:31;5.30;;;2.10;;
76597;SDS011;65486;53.144;18.134;2023-04-03T20:16:59;6.20;;;1.90;;
76597;SDS011;65486;53.144;18.134;2023-04-03T20:19:26;3.90;;;1.00;;
76597;SDS011;65486;53.144;18.134;2023-04-03T20:21:58;6.50;;;2.20;;
76597;SDS011;65486;53.144;18.134;2023-04-03T20:24:26;3.20;;;1.40;;
76597;SDS011;65486;53.144;18.134;2023-04-03T20:26:58;5.00;;;1.50;;
76597;SDS011;65486;53.144;18.134;2023-04-03T20:29:26;5.90;;;1.40;;
76597;SDS011;65486;53.144;18.134;2023-04-03T20:31:53;3.70;;;1.50;;
76597;SDS011;65486;53.144;18.134;2023-04-03T20:34:22;5.90;;;1.70;;
76597;SDS011;65486;53.144;18.134;2023-04-03T20:36:48;4.70;;;1.80;;
76597;SDS011;65486;53.144;18.134;2023-04-03T20:39:17;4.70;;;1.40;;
76597;SDS011;65486;53.144;18.134;2023-04-03T20:41:49;5.30;;;1.80;;
76597;SDS011;65486;53.144;18.134;2023-04-03T20:44:18;6.60;;;1.70;;
76597;SDS011;65486;53.144;18.134;2023-04-03T20:46:50;4.80;;;1.90;;
76597;SDS011;65486;53.144;18.134;2023-04-03T20:49:17;6.00;;;1.50;;
76597;SDS011;65486;53.144;18.134;2023-04-03T20:51:46;5.60;;;2.10;;
76597;SDS011;65486;53.144;18.134;2023-04-03T20:54:17;6.40;;;1.70;;
76597;SDS011;65486;53.144;18.134;2023-04-03T20:56:50;6.00;;;2.10;;
76597;SDS011;65486;53.144;18.134;2023-04-03T20:59:19;4.20;;;1.50;;
76597;SDS011;65486;53.144;18.134;2023-04-03T21:02:04;5.20;;;2.20;;
76597;SDS011;65486;53.144;18.134;2023-04-03T21:04:38;5.40;;;1.40;;
76597;SDS011;65486;53.144;18.134;2023-04-03T21:19:12;6.20;;;1.90;;
76597;SDS011;65486;53.144;18.134;2023-04-03T21:21:44;4.40;;;4.80;;
76597;SDS011;65486;53.144;18.134;2023-04-03T21:24:16;4.10;;;1.50;;
76597;SDS011;65486;53.144;18.134;2023-04-03T21:26:43;5.10;;;1.80;;
76597;SDS011;65486;53.144;18.134;2023-04-03T21:29:12;2.80;;;1.10;;
76597;SDS011;65486;53.144;18.134;2023-04-03T21:31:53;3.60;;;1.40;;
76597;SDS011;65486;53.144;18.134;2023-04-03T21:34:29;5.00;;;1.50;;
76597;SDS011;65486;53.144;18.134;2023-04-03T21:37:05;4.70;;;1.60;;
76597;SDS011;65486;53.144;18.134;2023-04-03T21:39:35;5.50;;;1.60;;
76597;SDS011;65486;53.144;18.134;2023-04-03T21:42:02;3.60;;;1.40;;
76597;SDS011;65486;53.144;18.134;2023-04-03T21:44:30;5.80;;;1.70;;
76597;SDS011;65486;53.144;18.134;2023-04-03T21:46:58;4.30;;;1.60;;
76597;SDS011;65486;53.144;18.134;2023-04-03T21:49:28;5.60;;;1.70;;
76597;SDS011;65486;53.144;18.134;2023-04-03T21:51:57;5.30;;;1.90;;
76597;SDS011;65486;53.144;18.134;2023-04-03T21:54:32;3.40;;;1.40;;
76597;SDS011;65486;53.144;18.134;2023-04-03T21:57:07;5.90;;;1.60;;
76597;SDS011;65486;53.144;18.134;2023-04-03T21:59:45;5.60;;;1.70;;
76597;SDS011;65486;53.144;18.134;2023-04-03T22:02:23;5.70;;;1.50;;
76597;SDS011;65486;53.144;18.134;2023-04-03T22:04:52;5.30;;;1.90;;
76597;SDS011;65486;53.144;18.134;2023-04-03T22:07:20;6.30;;;2.00;;
76597;SDS011;65486;53.144;18.134;2023-04-03T22:09:47;5.30;;;1.90;;
76597;SDS011;65486;53.144;18.134;2023-04-03T22:12:14;3.20;;;1.10;;
76597;SDS011;65486;53.144;18.134;2023-04-03T22:14:42;4.70;;;1.60;;
76597;SDS011;65486;53.144;18.134;2023-04-03T22:17:11;3.50;;;1.60;;
76597;SDS011;65486;53.144;18.134;2023-04-03T22:19:40;2.40;;;1.10;;
76597;SDS011;65486;53.144;18.134;2023-04-03T22:22:11;3.70;;;1.10;;
76597;SDS011;65486;53.144;18.134;2023-04-03T22:24:40;2.60;;;1.00;;
76597;SDS011;65486;53.144;18.134;2023-04-03T22:27:07;4.20;;;1.50;;
76597;SDS011;65486;53.144;18.134;2023-04-03T22:29:41;3.70;;;1.20;;
76597;SDS011;65486;53.144;18.134;2023-04-03T22:32:08;4.50;;;1.90;;
76597;SDS011;65486;53.144;18.134;2023-04-03T22:34:35;2.20;;;1.10;;
76597;SDS011;65486;53.144;18.134;2023-04-03T22:37:03;3.90;;;1.40;;
76597;SDS011;65486;53.144;18.134;2023-04-03T22:39:31;5.90;;;1.80;;
76597;SDS011;65486;53.144;18.134;2023-04-03T22:42:03;3.40;;;1.40;;
76597;SDS011;65486;53.144;18.134;2023-04-03T22:44:36;4.50;;;1.80;;
76597;SDS011;65486;53.144;18.134;2023-04-03T22:47:03;3.10;;;1.20;;
76597;SDS011;65486;53.144;18.134;2023-04-03T22:49:33;4.40;;;1.40;;
76597;SDS011;65486;53.144;18.134;2023-04-03T22:52:03;4.70;;;1.80;;
76597;SDS011;65486;53.144;18.134;2023-04-03T22:54:32;6.40;;;2.00;;
76597;SDS011;65486;53.144;18.134;2023-04-03T22:56:59;3.10;;;1.20;;
76597;SDS011;65486;53.144;18.134;2023-04-03T22:59:29;3.50;;;1.40;;
76597;SDS011;65486;53.144;18.134;2023-04-03T23:01:59;4.00;;;1.20;;
76597;SDS011;65486;53.144;18.134;2023-04-03T23:04:56;2.40;;;1.00;;
76597;SDS011;65486;53.144;18.134;2023-04-03T23:07:26;6.00;;;2.10;;
76597;SDS011;65486;53.144;18.134;2023-04-03T23:09:54;4.50;;;1.60;;
76597;SDS011;65486;53.144;18.134;2023-04-03T23:12:21;4.80;;;1.50;;
76597;SDS011;65486;53.144;18.134;2023-04-03T23:14:57;2.90;;;1.20;;
76597;SDS011;65486;53.144;18.134;2023-04-03T23:17:30;4.80;;;1.80;;
76597;SDS011;65486;53.144;18.134;2023-04-03T23:19:57;3.10;;;1.20;;
76597;SDS011;65486;53.144;18.134;2023-04-03T23:22:24;3.10;;;1.20;;
76597;SDS011;65486;53.144;18.134;2023-04-03T23:24:52;3.30;;;1.20;;
76597;SDS011;65486;53.144;18.134;2023-04-03T23:27:20;4.40;;;1.40;;
76597;SDS011;65486;53.144;18.134;2023-04-03T23:29:47;3.50;;;1.60;;
76597;SDS011;65486;53.144;18.134;2023-04-03T23:32:14;3.30;;;0.90;;
76597;SDS011;65486;53.144;18.134;2023-04-03T23:34:44;3.60;;;1.50;;
76597;SDS011;65486;53.144;18.134;2023-04-03T23:37:13;3.40;;;1.20;;
76597;SDS011;65486;53.144;18.134;2023-04-03T23:39:41;2.70;;;1.20;;
76597;SDS011;65486;53.144;18.134;2023-04-03T23:42:08;7.00;;;1.80;;
76597;SDS011;65486;53.144;18.134;2023-04-03T23:44:37;2.40;;;1.10;;
76597;SDS011;65486;53.144;18.134;2023-04-03T23:47:04;3.80;;;1.40;;
76597;SDS011;65486;53.144;18.134;2023-04-03T23:49:32;3.30;;;1.20;;
76597;SDS011;65486;53.144;18.134;2023-04-03T23:51:59;5.40;;;1.40;;
76597;SDS011;65486;53.144;18.134;2023-04-03T23:54:26;3.30;;;1.00;;
76597;SDS011;65486;53.144;18.134;2023-04-03T23:56:56;3.00;;;1.10;;
76597;SDS011;65486;53.144;18.134;2023-04-03T23:59:25;4.20;;;1.30;;
